This is the latest recevied weather packets stored in our database for station/object W4SMH. If no packets are shown the sender has not sent any weather packets the latest 10 day(s).
| Time | Temp. | Humidity | Pressure | Rain* | Wind** | Luminosity | Snow |
|---|---|---|---|---|---|---|---|
| 1777670971 | 6.67° C | 77% | 1016.2 hPa | 0 mm | - | 278 W/m² | - |
| 1777670538 | 6.11° C | 78% | 1016.2 hPa | 0.25 mm | - | 295 W/m² | - |
| 1777670351 | 6.11° C | 78% | 1016.2 hPa | 0.25 mm | - | 279 W/m² | - |
| 1777670325 | 6.11° C | 78% | 1016.2 hPa | 0.25 mm | - | 287 W/m² | - |
| 1777668996 | 6.11° C | 76% | 1016.1 hPa | 0.25 mm | - | 130 W/m² | - |
| 1777668912 | 6.11° C | 77% | 1016.2 hPa | 0.25 mm | - | 181 W/m² | - |
| 1777667981 | 5.56° C | 80% | 1016.1 hPa | 0.25 mm | - | 406 W/m² | - |
| 1777667912 | 5.56° C | 79% | 1016 hPa | 0.25 mm | - | 362 W/m² | - |
| 1777667228 | 5.56° C | 77% | 1016.3 hPa | 0 mm | - | 88 W/m² | - |
| 1777666716 | 5.56° C | 77% | 1016.3 hPa | 0 mm | - | 102 W/m² | - |
| 1777665520 | 6.11° C | 76% | 1016.3 hPa | 0 mm | - | 137 W/m² | - |
| 1777665462 | 6.11° C | 75% | 1016.3 hPa | 0 mm | - | 135 W/m² | - |
| 1777665191 | 6.11° C | 75% | 1016.2 hPa | 0 mm | - | 142 W/m² | - |
| 1777664539 | 6.11° C | 74% | 1016.1 hPa | 0 mm | - | 81 W/m² | - |
| 1777664479 | 6.11° C | 74% | 1016.1 hPa | 0 mm | - | 76 W/m² | - |
| 1777664017 | 6.67° C | 75% | 1015.9 hPa | 0 mm | - | 137 W/m² | - |
| 1777663452 | 6.11° C | 75% | 1016 hPa | 0 mm | - | 229 W/m² | - |
| 1777663424 | 6.11° C | 75% | 1015.9 hPa | 0 mm | - | 227 W/m² | - |
| 1777662999 | 6.11° C | 76% | 1015.9 hPa | 0 mm | - | 283 W/m² | - |
| 1777662328 | 6.11° C | 75% | 1015.8 hPa | 0 mm | - | 255 W/m² | - |
| 1777662274 | 6.11° C | 74% | 1015.9 hPa | 0 mm | - | 250 W/m² | - |
| 1777662027 | 6.11° C | 74% | 1015.8 hPa | 0 mm | - | 269 W/m² | - |
| 1777661407 | 6.11° C | 76% | 1015.7 hPa | 0 mm | - | 171 W/m² | - |
| 1777659889 | 6.67° C | 73% | 1015.5 hPa | 0 mm | - | 155 W/m² | - |
| 1777659144 | 7.22° C | 73% | 1015.5 hPa | 0 mm | - | 209 W/m² | - |
* Rain latest hour (hover to see other rain measurements)
** Current wind speed in m/s (hover to see current wind gust speed)